Time;durP1;ratioP1;P1;durP2;ratioP2;P2;SDS_P1;SDS_P2;PMS_P1;PMS_P2;Temp;Humidity;BMP_temperature;BMP_pressure;BME280_temperature;BME280_humidity;BME280_pressure;Samples;Min_cycle;Max_cycle;Signal;HPM_P1;HPM_P2
2022/03/06 00:00:23;;;;;;;75.03;35.83;;;;;;;4.22;nan;-23934.22;4991254;28;20216;-71
2022/03/06 00:02:48;;;;;;;66.33;36.30;;;;;;;3.49;nan;-23913.84;4991823;28;20200;-71
2022/03/06 00:05:14;;;;;;;64.33;34.33;;;;;;;3.93;nan;-23926.22;4992984;28;20211;-72
2022/03/06 00:07:39;;;;;;;67.43;36.00;;;;;;;3.97;nan;-23927.22;4992103;28;20184;-72
2022/03/06 00:10:05;;;;;;;67.73;36.37;;;;;;;3.66;nan;-23918.53;4991167;28;20207;-70
2022/03/06 00:12:31;;;;;;;68.53;34.33;;;;;;;3.64;nan;-23917.97;4992127;28;20283;-71
2022/03/06 00:14:56;;;;;;;66.00;35.23;;;;;;;3.87;nan;-23924.53;4992270;28;20169;-71
2022/03/06 00:17:21;;;;;;;68.40;35.53;;;;;;;4.12;nan;-23931.50;4991911;28;20207;-71
2022/03/06 00:19:47;;;;;;;64.67;35.13;;;;;;;3.68;nan;-23919.09;4992738;28;20647;-71
2022/03/06 00:22:12;;;;;;;62.07;33.73;;;;;;;4.15;nan;-23932.34;4992284;28;20193;-72
2022/03/06 00:24:38;;;;;;;64.90;34.13;;;;;;;3.66;nan;-23918.41;4992035;28;20601;-73
2022/03/06 00:27:03;;;;;;;63.63;32.30;;;;;;;3.69;nan;-23919.41;4992251;28;20176;-70
2022/03/06 00:29:29;;;;;;;63.63;33.40;;;;;;;3.65;nan;-23918.13;4992039;28;20684;-70
2022/03/06 00:31:54;;;;;;;58.93;32.17;;;;;;;4.04;nan;-23929.09;4992213;28;20196;-70
2022/03/06 00:34:20;;;;;;;67.70;32.87;;;;;;;3.63;nan;-23917.53;4991887;28;20175;-71
2022/03/06 00:36:46;;;;;;;63.47;33.03;;;;;;;3.99;nan;-23927.81;5023854;28;20587;-71
2022/03/06 00:39:12;;;;;;;59.87;32.97;;;;;;;3.78;nan;-23921.81;4992613;28;20169;-70
2022/03/06 00:41:38;;;;;;;64.17;32.53;;;;;;;4.08;nan;-23930.38;4991634;28;20251;-71
2022/03/06 00:44:03;;;;;;;61.97;32.73;;;;;;;3.63;nan;-23917.53;4991966;28;20196;-71
2022/03/06 00:46:29;;;;;;;66.37;33.37;;;;;;;3.88;nan;-23924.66;4991508;28;20566;-71
2022/03/06 00:48:54;;;;;;;65.83;33.40;;;;;;;4.08;nan;-23930.22;4992084;28;20663;-71
2022/03/06 00:51:20;;;;;;;61.80;32.87;;;;;;;4.08;nan;-23930.22;4992066;28;20177;-71
2022/03/06 00:53:45;;;;;;;54.67;31.03;;;;;;;3.79;nan;-23922.09;4991925;28;20184;-71
2022/03/06 00:56:11;;;;;;;57.23;29.43;;;;;;;3.47;nan;-23913.25;4991935;28;20331;-70
2022/03/06 00:58:37;;;;;;;61.50;33.20;;;;;;;3.47;nan;-23913.13;4991641;28;20242;-70
2022/03/06 01:01:04;;;;;;;61.03;31.30;;;;;;;3.51;nan;-23914.41;5022945;28;20670;-70
2022/03/06 01:03:30;;;;;;;60.90;31.83;;;;;;;4.02;nan;-23928.66;4992090;28;20212;-71
2022/03/06 01:05:55;;;;;;;66.70;33.53;;;;;;;3.51;nan;-23914.41;4991756;28;20173;-71
2022/03/06 01:08:21;;;;;;;64.03;32.90;;;;;;;3.34;nan;-23909.56;4991654;28;20788;-70
2022/03/06 01:10:47;;;;;;;60.83;31.83;;;;;;;3.77;nan;-23921.69;4991801;28;20177;-71
2022/03/06 01:13:17;;;;;;;64.63;32.13;;;;;;;3.78;nan;-23921.97;4994293;28;20204;-71
2022/03/06 01:15:42;;;;;;;59.93;31.50;;;;;;;3.63;nan;-23917.53;5026602;28;20183;-71
2022/03/06 01:18:08;;;;;;;59.50;31.77;;;;;;;3.93;nan;-23926.09;4995088;28;20204;-71
2022/03/06 01:20:36;;;;;;;60.00;29.37;;;;;;;3.91;nan;-23925.66;4995415;28;20180;-73
2022/03/06 01:23:02;;;;;;;58.63;31.73;;;;;;;3.76;nan;-23921.25;4994965;28;20585;-71
2022/03/06 01:25:27;;;;;;;58.80;31.83;;;;;;;3.56;nan;-23915.69;4994962;28;20176;-71
2022/03/06 01:27:53;;;;;;;63.23;32.43;;;;;;;3.77;nan;-23921.53;4994984;28;20565;-70
2022/03/06 01:30:21;;;;;;;58.97;32.37;;;;;;;3.85;nan;-23923.81;4994558;28;20659;-70
2022/03/06 01:32:47;;;;;;;62.47;31.37;;;;;;;3.27;nan;-23907.41;4993537;28;20177;-70
2022/03/06 01:35:13;;;;;;;55.20;29.40;;;;;;;3.50;nan;-23914.13;5026738;28;20177;-71
2022/03/06 01:37:38;;;;;;;51.70;29.47;;;;;;;3.72;nan;-23920.25;4994779;28;20605;-72
2022/03/06 01:40:04;;;;;;;54.33;28.20;;;;;;;3.37;nan;-23910.41;4994650;28;20176;-71
2022/03/06 01:42:29;;;;;;;60.43;32.10;;;;;;;3.19;nan;-23905.28;5025987;28;20232;-70
2022/03/06 01:44:55;;;;;;;53.47;29.10;;;;;;;3.19;nan;-23905.13;4994259;28;20220;-71
2022/03/06 01:47:36;;;;;;;53.03;29.80;;;;;;;3.68;nan;-23919.09;5026646;28;20295;-71
2022/03/06 01:50:04;;;;;;;56.40;30.53;;;;;;;3.55;nan;-23915.53;5025930;28;20226;-70
2022/03/06 01:52:30;;;;;;;56.60;29.47;;;;;;;3.57;nan;-23915.97;4994671;28;20172;-71
2022/03/06 01:54:55;;;;;;;55.30;30.50;;;;;;;3.29;nan;-23908.13;4994646;28;20628;-69
2022/03/06 01:57:21;;;;;;;57.50;29.03;;;;;;;3.48;nan;-23913.56;4994279;28;20177;-69
2022/03/06 01:59:46;;;;;;;53.53;29.53;;;;;;;2.98;nan;-23899.44;4994722;28;20634;-69
2022/03/06 02:02:12;;;;;;;50.40;28.63;;;;;;;3.07;nan;-23902.00;4994373;28;20219;-71
2022/03/06 02:04:37;;;;;;;53.70;29.67;;;;;;;3.51;nan;-23914.25;4994924;28;20169;-71
2022/03/06 02:07:03;;;;;;;55.07;29.10;;;;;;;3.39;nan;-23910.84;4994305;28;20223;-71
2022/03/06 02:09:28;;;;;;;53.17;28.30;;;;;;;2.92;nan;-23897.72;4994118;28;20177;-70
2022/03/06 02:14:38;;;;;;;47.20;27.27;;;;;;;3.46;nan;-23912.84;4993990;28;20171;-68
2022/03/06 02:17:04;;;;;;;48.73;27.53;;;;;;;3.42;nan;-23911.84;4994460;28;20173;-71
2022/03/06 02:19:29;;;;;;;49.03;27.73;;;;;;;3.46;nan;-23912.97;4994131;28;20190;-71
2022/03/06 02:21:54;;;;;;;46.87;25.93;;;;;;;1.86;nan;-23867.59;4993671;28;20569;-70
2022/03/06 02:24:20;;;;;;;46.33;26.03;;;;;;;3.30;nan;-23908.41;4992822;28;20172;-70
2022/03/06 02:26:45;;;;;;;44.23;25.70;;;;;;;3.26;nan;-23907.28;4993880;28;20192;-71
2022/03/06 02:29:11;;;;;;;50.13;27.03;;;;;;;3.26;nan;-23907.13;4994173;28;20168;-70
2022/03/06 02:31:36;;;;;;;50.10;26.73;;;;;;;2.82;nan;-23894.88;4993846;28;20553;-71
2022/03/06 02:34:02;;;;;;;50.03;27.17;;;;;;;3.31;nan;-23908.56;4993791;28;20192;-71
2022/03/06 02:36:27;;;;;;;44.80;23.40;;;;;;;2.91;nan;-23897.44;4993740;28;20642;-71
2022/03/06 02:38:53;;;;;;;46.67;25.97;;;;;;;3.16;nan;-23904.44;4993538;28;20702;-70
2022/03/06 02:41:18;;;;;;;49.00;25.80;;;;;;;2.94;nan;-23898.16;4993952;28;20306;-71
2022/03/06 02:43:44;;;;;;;44.57;25.47;;;;;;;2.95;nan;-23898.44;4992552;28;20328;-71
2022/03/06 02:46:09;;;;;;;46.70;25.60;;;;;;;2.88;nan;-23896.44;4987184;28;20270;-71
2022/03/06 02:48:35;;;;;;;50.37;26.97;;;;;;;3.00;nan;-23899.88;4981289;28;20187;-71
2022/03/06 02:51:00;;;;;;;45.40;25.87;;;;;;;2.70;nan;-23891.31;4993523;28;20177;-71
2022/03/06 02:53:25;;;;;;;50.90;27.43;;;;;;;3.07;nan;-23901.84;4993090;28;20223;-71
2022/03/06 02:55:51;;;;;;;47.47;26.27;;;;;;;2.95;nan;-23898.44;4992126;28;20269;-71
2022/03/06 02:58:17;;;;;;;47.50;25.30;;;;;;;3.01;nan;-23900.28;4992578;28;20678;-71
2022/03/06 03:00:42;;;;;;;49.67;25.53;;;;;;;2.90;nan;-23897.00;4983039;28;20246;-70
2022/03/06 03:03:08;;;;;;;45.70;24.47;;;;;;;2.45;nan;-23884.44;4984322;28;20718;-71
2022/03/06 03:05:33;;;;;;;46.47;25.27;;;;;;;2.64;nan;-23889.88;4991534;28;20209;-70
2022/03/06 03:07:59;;;;;;;47.10;23.93;;;;;;;2.67;nan;-23890.72;4991332;28;20193;-71
2022/03/06 03:10:25;;;;;;;44.10;24.17;;;;;;;2.88;nan;-23896.44;4990065;28;20679;-71
2022/03/06 03:12:52;;;;;;;50.57;24.50;;;;;;;2.87;nan;-23896.16;4991359;28;20182;-71
2022/03/06 03:15:17;;;;;;;49.33;24.53;;;;;;;2.45;nan;-23884.44;4990659;28;20184;-70
2022/03/06 03:17:43;;;;;;;46.17;25.43;;;;;;;2.75;nan;-23892.72;4989936;28;20580;-71
2022/03/06 03:20:10;;;;;;;47.77;24.03;;;;;;;2.41;nan;-23883.31;4990758;28;20295;-70
2022/03/06 03:22:36;;;;;;;44.97;23.67;;;;;;;2.32;nan;-23880.75;4990530;28;20238;-70
2022/03/06 03:25:03;;;;;;;44.17;23.53;;;;;;;2.27;nan;-23879.31;4990633;28;20210;-71
2022/03/06 03:27:28;;;;;;;39.93;22.00;;;;;;;2.59;nan;-23888.31;4984009;28;20177;-71
2022/03/06 03:29:54;;;;;;;46.40;24.07;;;;;;;2.10;nan;-23874.47;4991083;28;20257;-73
2022/03/06 03:32:19;;;;;;;44.30;22.87;;;;;;;2.82;nan;-23894.72;4989514;28;20189;-71
2022/03/06 03:34:44;;;;;;;43.43;21.90;;;;;;;2.43;nan;-23883.75;4990812;28;20177;-71
2022/03/06 03:37:10;;;;;;;42.60;22.37;;;;;;;2.61;nan;-23889.03;4990652;28;20194;-70
2022/03/06 03:39:35;;;;;;;41.43;22.13;;;;;;;2.59;nan;-23888.31;4990957;28;20214;-72
2022/03/06 03:42:00;;;;;;;44.93;23.50;;;;;;;2.28;nan;-23879.44;4990790;28;20237;-71
2022/03/06 03:44:26;;;;;;;42.47;23.43;;;;;;;2.28;nan;-23879.59;4988847;28;20654;-70
2022/03/06 03:46:51;;;;;;;44.30;23.13;;;;;;;2.05;nan;-23873.16;4991093;28;20226;-71
2022/03/06 03:49:17;;;;;;;41.53;21.53;;;;;;;2.09;nan;-23874.31;4991016;28;20252;-71
2022/03/06 03:51:43;;;;;;;40.67;21.67;;;;;;;2.11;nan;-23874.75;4991393;28;20180;-71
2022/03/06 03:54:09;;;;;;;45.40;23.83;;;;;;;1.93;nan;-23869.75;4990256;28;20602;-71
2022/03/06 03:56:35;;;;;;;46.80;23.33;;;;;;;1.93;nan;-23869.59;4991264;28;20186;-72
2022/03/06 03:59:00;;;;;;;41.03;21.17;;;;;;;2.41;nan;-23883.16;4991692;28;20200;-71
2022/03/06 04:01:26;;;;;;;42.77;21.73;;;;;;;2.44;nan;-23884.03;4990454;28;20678;-72
2022/03/06 04:03:51;;;;;;;47.87;23.90;;;;;;;1.89;nan;-23868.47;4988811;28;20224;-71
2022/03/06 04:06:16;;;;;;;48.57;22.83;;;;;;;1.99;nan;-23871.31;4990883;28;20196;-72
2022/03/06 04:08:42;;;;;;;49.17;23.87;;;;;;;2.36;nan;-23881.75;4990539;28;20201;-71
2022/03/06 04:11:08;;;;;;;50.57;23.93;;;;;;;2.16;nan;-23876.31;4990446;28;20188;-72
2022/03/06 04:13:33;;;;;;;49.40;25.37;;;;;;;2.31;nan;-23880.31;4990802;28;20675;-71
2022/03/06 04:15:59;;;;;;;51.67;24.23;;;;;;;1.98;nan;-23871.03;4990870;28;20680;-72
2022/03/06 04:18:25;;;;;;;49.93;25.00;;;;;;;1.96;nan;-23870.59;4990230;28;20181;-69
2022/03/06 04:20:50;;;;;;;46.80;25.00;;;;;;;2.26;nan;-23878.88;4991028;28;20733;-71
2022/03/06 04:23:16;;;;;;;50.20;25.27;;;;;;;2.18;nan;-23876.75;4989264;28;20212;-71
2022/03/06 04:25:41;;;;;;;57.30;26.10;;;;;;;2.03;nan;-23872.47;4990621;28;20204;-70
2022/03/06 04:28:07;;;;;;;51.87;24.77;;;;;;;1.90;nan;-23868.88;4990165;28;20194;-71
2022/03/06 04:30:33;;;;;;;52.33;25.30;;;;;;;1.75;nan;-23864.75;4990895;28;20197;-70
2022/03/06 04:32:58;;;;;;;52.33;25.20;;;;;;;1.92;nan;-23869.31;4990869;28;20183;-69
2022/03/06 04:35:24;;;;;;;54.83;26.53;;;;;;;2.02;nan;-23872.16;4988908;28;20238;-71
2022/03/06 04:37:50;;;;;;;54.43;26.40;;;;;;;2.22;nan;-23877.88;4990463;28;20216;-70
2022/03/06 04:40:15;;;;;;;50.77;25.70;;;;;;;1.73;nan;-23864.16;4990149;28;20640;-71
2022/03/06 04:42:41;;;;;;;54.30;25.53;;;;;;;2.32;nan;-23880.75;4990998;28;20235;-71
2022/03/06 04:45:07;;;;;;;54.23;26.63;;;;;;;2.09;nan;-23874.16;4989955;28;20193;-71
2022/03/06 04:47:33;;;;;;;51.30;26.53;;;;;;;2.23;nan;-23878.16;4984593;28;20185;-68
2022/03/06 04:49:59;;;;;;;55.17;25.80;;;;;;;1.80;nan;-23866.03;4994020;28;20185;-72
2022/03/06 04:52:24;;;;;;;48.70;23.00;;;;;;;2.28;nan;-23879.59;4993319;28;20184;-72
2022/03/06 04:54:50;;;;;;;51.60;26.63;;;;;;;2.27;nan;-23879.16;4994644;28;20189;-72
2022/03/06 04:57:15;;;;;;;53.93;27.73;;;;;;;1.88;nan;-23868.16;4993761;28;20246;-72
2022/03/06 04:59:41;;;;;;;53.40;26.57;;;;;;;2.02;nan;-23872.16;4993933;28;20185;-72
2022/03/06 05:02:07;;;;;;;55.73;27.60;;;;;;;1.90;nan;-23868.88;4993654;28;20219;-71
2022/03/06 05:04:32;;;;;;;59.07;28.10;;;;;;;1.86;nan;-23867.59;4994010;28;20193;-71
2022/03/06 05:07:00;;;;;;;55.67;27.53;;;;;;;2.06;nan;-23873.31;4993973;28;20196;-70
2022/03/06 05:09:26;;;;;;;58.13;28.57;;;;;;;2.14;nan;-23875.59;4993180;28;20648;-71
2022/03/06 05:11:52;;;;;;;60.40;28.13;;;;;;;1.72;nan;-23863.88;4992298;28;20226;-72
2022/03/06 05:14:22;;;;;;;56.20;27.00;;;;;;;2.00;nan;-23871.75;4993305;28;20190;-72
2022/03/06 05:16:47;;;;;;;55.40;28.13;;;;;;;2.36;nan;-23881.75;5001462;28;20225;-72
2022/03/06 05:19:13;;;;;;;55.70;28.40;;;;;;;2.03;nan;-23872.59;4993515;28;20268;-69
2022/03/06 05:21:39;;;;;;;58.73;27.60;;;;;;;2.05;nan;-23873.16;4994262;28;20232;-75
2022/03/06 05:24:11;;;;;;;57.37;26.30;;;;;;;2.25;nan;-23878.75;4994120;28;20188;-72
2022/03/06 05:26:38;;;;;;;55.90;27.77;;;;;;;1.77;nan;-23865.31;4993571;28;20212;-72
2022/03/06 05:29:03;;;;;;;59.43;28.03;;;;;;;2.02;nan;-23872.31;4990329;28;20193;-71
2022/03/06 05:31:29;;;;;;;59.73;29.30;;;;;;;2.01;nan;-23872.03;4991897;28;20274;-72
2022/03/06 05:33:56;;;;;;;60.20;29.10;;;;;;;2.26;nan;-23879.03;4994233;28;20196;-75
2022/03/06 05:36:22;;;;;;;57.33;28.17;;;;;;;2.40;nan;-23883.03;4993579;28;20598;-72
2022/03/06 05:38:48;;;;;;;53.17;28.23;;;;;;;2.26;nan;-23878.88;4994429;28;20211;-74
2022/03/06 05:41:14;;;;;;;60.60;28.63;;;;;;;2.22;nan;-23877.88;4993412;28;20657;-72
2022/03/06 05:43:39;;;;;;;60.63;29.40;;;;;;;2.21;nan;-23877.59;4992669;28;20244;-71
2022/03/06 05:46:05;;;;;;;58.87;28.47;;;;;;;2.20;nan;-23877.31;4993325;28;20259;-71
2022/03/06 05:48:30;;;;;;;63.03;29.70;;;;;;;2.29;nan;-23879.88;4993040;28;20218;-71
2022/03/06 05:50:56;;;;;;;64.37;30.27;;;;;;;2.32;nan;-23880.75;4993600;28;20186;-72
2022/03/06 05:53:21;;;;;;;66.17;31.33;;;;;;;2.14;nan;-23875.59;4992302;28;20563;-71
2022/03/06 05:55:47;;;;;;;62.63;30.00;;;;;;;2.30;nan;-23880.16;4992804;28;20321;-73
2022/03/06 05:58:12;;;;;;;62.50;31.13;;;;;;;1.92;nan;-23869.47;4991321;28;20181;-71
2022/03/06 06:00:38;;;;;;;64.57;30.33;;;;;;;2.43;nan;-23883.88;4993236;28;20423;-70
2022/03/06 06:03:03;;;;;;;68.10;31.77;;;;;;;2.43;nan;-23883.88;4992313;28;20200;-70
2022/03/06 06:05:29;;;;;;;64.67;29.83;;;;;;;2.37;nan;-23882.03;4992054;28;20193;-73
2022/03/06 06:07:54;;;;;;;62.77;29.00;;;;;;;2.01;nan;-23872.03;4989301;28;20657;-73
2022/03/06 06:10:20;;;;;;;60.63;29.13;;;;;;;2.41;nan;-23883.31;4986166;28;20184;-69
2022/03/06 06:12:45;;;;;;;65.90;29.77;;;;;;;2.38;nan;-23882.31;4987289;28;20267;-71
2022/03/06 06:15:11;;;;;;;58.13;30.27;;;;;;;2.44;nan;-23884.16;4985354;28;20198;-68
2022/03/06 06:17:37;;;;;;;62.30;29.83;;;;;;;2.03;nan;-23872.47;4986243;28;20198;-70
2022/03/06 06:20:04;;;;;;;61.23;28.37;;;;;;;2.33;nan;-23881.03;4986564;28;20268;-69
2022/03/06 06:22:31;;;;;;;57.27;28.23;;;;;;;2.28;nan;-23879.44;4986973;28;20213;-71
2022/03/06 06:24:57;;;;;;;58.80;28.93;;;;;;;2.32;nan;-23880.59;4986869;28;20542;-72
2022/03/06 06:27:22;;;;;;;63.90;29.53;;;;;;;2.36;nan;-23881.75;4986870;28;20179;-71
2022/03/06 06:29:48;;;;;;;58.67;28.87;;;;;;;2.41;nan;-23883.31;4987378;28;20581;-69
2022/03/06 06:32:14;;;;;;;62.33;30.07;;;;;;;2.33;nan;-23881.03;4985104;28;21019;-71
2022/03/06 06:34:39;;;;;;;62.70;30.37;;;;;;;2.29;nan;-23879.75;4986690;28;20766;-73
2022/03/06 06:37:05;;;;;;;58.83;29.80;;;;;;;1.83;nan;-23866.75;4986005;28;20178;-71
2022/03/06 06:39:31;;;;;;;66.93;29.90;;;;;;;1.89;nan;-23868.47;4986458;28;20219;-71
2022/03/06 06:41:57;;;;;;;65.20;30.47;;;;;;;1.86;nan;-23867.59;4985579;28;20234;-72
2022/03/06 06:44:22;;;;;;;62.47;29.90;;;;;;;2.18;nan;-23876.88;4985344;28;20216;-71
2022/03/06 06:46:48;;;;;;;60.57;28.23;;;;;;;2.03;nan;-23872.47;4986241;28;20192;-71
2022/03/06 06:49:14;;;;;;;61.53;28.43;;;;;;;2.39;nan;-23882.75;4984282;28;20666;-72
2022/03/06 06:51:39;;;;;;;61.17;29.17;;;;;;;1.96;nan;-23870.59;4986076;28;20190;-71
2022/03/06 06:54:05;;;;;;;59.43;27.80;;;;;;;2.11;nan;-23874.75;4985958;28;20197;-71
2022/03/06 06:56:31;;;;;;;61.13;28.60;;;;;;;2.17;nan;-23876.47;4986167;28;20737;-71
2022/03/06 06:58:56;;;;;;;62.63;28.97;;;;;;;2.41;nan;-23883.31;4985550;28;20182;-72
2022/03/06 07:01:22;;;;;;;60.73;28.20;;;;;;;2.33;nan;-23880.88;4985738;28;20260;-71
2022/03/06 07:03:48;;;;;;;59.60;29.03;;;;;;;2.46;nan;-23884.59;4985598;28;20774;-71
2022/03/06 07:06:14;;;;;;;55.97;28.70;;;;;;;2.52;nan;-23886.44;4985812;28;20330;-71
2022/03/06 07:08:39;;;;;;;55.53;27.40;;;;;;;2.43;nan;-23883.88;4984861;28;20278;-71
2022/03/06 07:11:05;;;;;;;53.30;26.53;;;;;;;2.31;nan;-23880.47;4984097;28;20617;-71
2022/03/06 07:13:31;;;;;;;59.40;28.03;;;;;;;2.38;nan;-23882.31;4974253;28;20186;-70
2022/03/06 07:15:56;;;;;;;56.27;29.00;;;;;;;2.21;nan;-23877.75;4984958;28;20189;-73
2022/03/06 07:18:23;;;;;;;56.93;27.97;;;;;;;2.22;nan;-23877.88;4984546;28;20323;-72
2022/03/06 07:20:48;;;;;;;51.57;25.47;;;;;;;1.91;nan;-23869.16;4986148;28;20177;-70
2022/03/06 07:23:15;;;;;;;52.40;25.77;;;;;;;2.12;nan;-23875.16;4984162;28;20709;-71
2022/03/06 07:25:41;;;;;;;51.57;26.50;;;;;;;2.37;nan;-23882.16;4984649;28;20661;-70
2022/03/06 07:28:06;;;;;;;53.03;25.93;;;;;;;2.47;nan;-23885.03;4985632;28;20310;-70
2022/03/06 07:30:32;;;;;;;51.37;25.70;;;;;;;2.32;nan;-23880.75;4984144;28;20196;-70
2022/03/06 07:32:59;;;;;;;54.73;26.37;;;;;;;2.22;nan;-23878.03;4985685;28;20660;-71
2022/03/06 07:35:25;;;;;;;50.70;25.33;;;;;;;1.89;nan;-23868.47;4984445;28;20291;-70
2022/03/06 07:37:50;;;;;;;49.00;24.13;;;;;;;2.14;nan;-23875.59;4984815;28;20184;-71
2022/03/06 07:40:19;;;;;;;51.03;25.80;;;;;;;2.40;nan;-23883.03;4984403;28;20266;-69
2022/03/06 07:42:44;;;;;;;51.30;26.17;;;;;;;1.97;nan;-23870.88;4985322;28;20251;-70
2022/03/06 07:45:11;;;;;;;50.43;25.60;;;;;;;2.41;nan;-23883.31;4990748;28;20176;-71
2022/03/06 07:47:37;;;;;;;48.77;25.50;;;;;;;2.45;nan;-23884.44;4989878;28;20189;-71
2022/03/06 07:50:03;;;;;;;50.23;25.97;;;;;;;2.46;nan;-23884.75;4990874;28;20183;-70
2022/03/06 07:52:29;;;;;;;50.70;25.63;;;;;;;2.03;nan;-23872.59;4990461;28;20189;-70
2022/03/06 07:54:54;;;;;;;46.43;24.13;;;;;;;2.52;nan;-23886.31;4990831;28;20261;-70
2022/03/06 07:57:20;;;;;;;49.13;25.20;;;;;;;2.49;nan;-23885.59;4991432;28;20556;-69
2022/03/06 07:59:45;;;;;;;49.30;24.73;;;;;;;2.46;nan;-23884.75;4989862;28;20190;-69
2022/03/06 08:02:11;;;;;;;45.20;23.10;;;;;;;2.20;nan;-23877.31;4989280;28;20237;-71
2022/03/06 08:04:36;;;;;;;45.00;24.20;;;;;;;1.91;nan;-23869.03;4990352;28;20188;-70
2022/03/06 08:07:05;;;;;;;50.97;25.87;;;;;;;2.46;nan;-23884.75;4987821;28;20364;-72
2022/03/06 08:09:30;;;;;;;45.60;24.30;;;;;;;2.42;nan;-23883.59;4987290;28;20185;-70
2022/03/06 08:11:56;;;;;;;50.93;24.70;;;;;;;2.19;nan;-23877.03;4991196;28;20241;-72
2022/03/06 08:14:22;;;;;;;54.03;27.37;;;;;;;2.32;nan;-23880.75;4990756;28;20246;-72
2022/03/06 08:16:47;;;;;;;61.80;29.97;;;;;;;2.09;nan;-23874.16;4990167;28;20670;-70
2022/03/06 08:19:13;;;;;;;58.67;30.07;;;;;;;2.31;nan;-23880.31;4991258;28;20182;-72
2022/03/06 08:21:42;;;;;;;56.50;29.80;;;;;;;2.40;nan;-23882.88;4993072;28;20655;-71
2022/03/06 08:24:07;;;;;;;49.17;26.07;;;;;;;1.91;nan;-23869.03;4994117;28;20584;-70
2022/03/06 08:26:33;;;;;;;53.60;26.33;;;;;;;1.87;nan;-23868.03;4995613;28;20644;-71
2022/03/06 08:28:58;;;;;;;48.50;25.30;;;;;;;2.49;nan;-23885.44;4994780;28;20227;-72
2022/03/06 08:31:24;;;;;;;48.47;24.67;;;;;;;2.29;nan;-23879.88;4995149;28;20185;-71
2022/03/06 08:33:52;;;;;;;47.63;23.43;;;;;;;2.35;nan;-23881.47;4993926;28;20195;-70
2022/03/06 08:36:17;;;;;;;45.63;22.50;;;;;;;1.96;nan;-23870.59;4995023;28;20671;-71
2022/03/06 08:38:43;;;;;;;44.27;24.40;;;;;;;2.46;nan;-23884.59;4994800;28;20190;-71
2022/03/06 08:41:08;;;;;;;45.03;24.63;;;;;;;2.35;nan;-23881.47;4994867;28;20227;-72
2022/03/06 08:43:33;;;;;;;43.63;23.03;;;;;;;2.11;nan;-23874.88;4992748;28;20206;-71
2022/03/06 08:45:59;;;;;;;45.97;23.87;;;;;;;2.39;nan;-23882.75;4994386;28;20672;-70
2022/03/06 08:48:24;;;;;;;46.70;25.10;;;;;;;1.89;nan;-23868.47;4990733;28;20684;-71
2022/03/06 08:50:50;;;;;;;45.87;24.97;;;;;;;2.23;nan;-23878.16;4992645;28;20294;-73
2022/03/06 08:53:16;;;;;;;45.60;24.50;;;;;;;2.48;nan;-23885.16;4994745;28;20183;-72
2022/03/06 08:55:42;;;;;;;47.83;24.20;;;;;;;2.40;nan;-23882.88;4993823;28;20194;-70
2022/03/06 08:58:07;;;;;;;46.13;23.60;;;;;;;2.40;nan;-23883.03;4994332;28;20243;-72
2022/03/06 09:00:33;;;;;;;41.30;22.80;;;;;;;2.23;nan;-23878.16;4994431;28;20353;-71
2022/03/06 09:02:58;;;;;;;47.77;24.50;;;;;;;1.84;nan;-23867.19;4994702;28;20225;-69
2022/03/06 09:05:24;;;;;;;45.07;23.30;;;;;;;2.31;nan;-23880.47;4991984;28;20196;-72
2022/03/06 09:07:49;;;;;;;42.10;23.13;;;;;;;2.20;nan;-23877.31;4993570;28;20249;-71
2022/03/06 09:10:15;;;;;;;45.77;23.23;;;;;;;1.67;nan;-23862.47;4992975;28;20651;-71
2022/03/06 09:12:41;;;;;;;44.97;24.63;;;;;;;2.30;nan;-23880.16;4994183;28;20191;-71
2022/03/06 09:15:08;;;;;;;44.87;24.93;;;;;;;2.48;nan;-23885.16;4994154;28;20631;-72
2022/03/06 09:17:33;;;;;;;45.10;24.43;;;;;;;2.19;nan;-23877.03;4994093;28;20187;-72
2022/03/06 09:19:58;;;;;;;44.13;24.40;;;;;;;2.07;nan;-23873.75;4992998;28;20619;-71
2022/03/06 09:22:24;;;;;;;49.07;25.57;;;;;;;2.29;nan;-23879.75;4994296;28;20243;-70
2022/03/06 09:24:52;;;;;;;45.47;24.70;;;;;;;2.53;nan;-23886.75;4992761;28;20195;-71
2022/03/06 09:27:18;;;;;;;41.83;22.93;;;;;;;2.53;nan;-23886.59;4994654;28;20178;-73
2022/03/06 09:29:44;;;;;;;43.07;22.30;;;;;;;2.44;nan;-23884.03;4993523;28;20178;-71
2022/03/06 09:32:09;;;;;;;37.80;21.30;;;;;;;1.96;nan;-23870.47;4994289;28;20642;-72
2022/03/06 09:34:35;;;;;;;41.53;22.57;;;;;;;2.44;nan;-23884.03;4994326;28;20179;-71
2022/03/06 09:37:00;;;;;;;46.43;24.37;;;;;;;2.42;nan;-23883.44;4992898;28;20653;-72
2022/03/06 09:39:26;;;;;;;42.20;22.83;;;;;;;2.18;nan;-23876.75;4994807;28;20174;-72
2022/03/06 09:41:54;;;;;;;41.80;22.43;;;;;;;2.09;nan;-23874.31;4997152;28;20227;-70
2022/03/06 09:44:23;;;;;;;43.70;22.73;;;;;;;2.60;nan;-23888.72;4994822;28;20182;-71
2022/03/06 09:46:52;;;;;;;40.80;21.53;;;;;;;2.57;nan;-23887.88;4994311;28;20187;-72
2022/03/06 09:49:18;;;;;;;37.53;21.53;;;;;;;2.33;nan;-23881.03;4994254;28;20651;-72
2022/03/06 09:51:44;;;;;;;37.17;21.37;;;;;;;2.33;nan;-23881.03;4994453;28;20254;-71
2022/03/06 09:54:12;;;;;;;41.33;21.63;;;;;;;2.30;nan;-23880.16;4994343;28;20184;-71
2022/03/06 09:56:39;;;;;;;36.23;20.60;;;;;;;1.98;nan;-23871.03;4994018;28;20175;-71
2022/03/06 09:59:04;;;;;;;37.27;21.17;;;;;;;1.87;nan;-23867.88;4994169;28;20642;-71
2022/03/06 10:01:30;;;;;;;36.93;20.37;;;;;;;2.18;nan;-23876.88;4993011;28;20189;-72
2022/03/06 10:03:56;;;;;;;36.27;20.40;;;;;;;2.43;nan;-23883.75;4993757;28;20201;-71
2022/03/06 10:06:23;;;;;;;37.47;20.93;;;;;;;2.42;nan;-23883.59;4992736;28;20634;-71
2022/03/06 10:09:03;;;;;;;37.13;20.87;;;;;;;2.45;nan;-23884.31;4993119;28;20557;-73
2022/03/06 10:11:28;;;;;;;40.27;21.00;;;;;;;2.31;nan;-23880.47;4993805;28;20175;-71
2022/03/06 10:13:54;;;;;;;36.13;20.23;;;;;;;2.48;nan;-23885.16;4992572;28;20649;-72
2022/03/06 10:16:20;;;;;;;38.13;21.97;;;;;;;2.05;nan;-23873.16;4994091;28;20609;-71
2022/03/06 10:18:51;;;;;;;36.73;19.97;;;;;;;1.93;nan;-23869.59;4993991;28;20190;-71
2022/03/06 10:21:22;;;;;;;38.97;20.50;;;;;;;1.99;nan;-23871.31;4993829;28;20170;-71
2022/03/06 10:23:53;;;;;;;32.77;18.40;;;;;;;2.41;nan;-23883.16;4992503;28;20288;-71
2022/03/06 10:26:24;;;;;;;37.47;19.83;;;;;;;1.97;nan;-23870.75;4993736;28;20193;-71
2022/03/06 10:28:58;;;;;;;36.50;20.53;;;;;;;1.98;nan;-23871.19;4993790;28;20649;-71
2022/03/06 10:31:26;;;;;;;37.10;20.57;;;;;;;2.27;nan;-23879.31;4993356;28;20177;-71
2022/03/06 10:34:07;;;;;;;35.30;19.60;;;;;;;2.31;nan;-23880.47;4993516;28;20174;-71
2022/03/06 10:36:34;;;;;;;36.67;20.50;;;;;;;2.36;nan;-23881.75;4993707;28;20193;-71
2022/03/06 10:39:00;;;;;;;34.60;19.83;;;;;;;2.29;nan;-23879.75;4993346;28;20221;-71
2022/03/06 10:41:38;;;;;;;36.47;20.47;;;;;;;2.33;nan;-23880.88;4993211;28;20276;-71
2022/03/06 10:44:08;;;;;;;39.77;21.00;;;;;;;1.90;nan;-23868.75;4992548;28;20215;-71
2022/03/06 10:46:36;;;;;;;37.83;20.27;;;;;;;1.99;nan;-23871.31;4992981;28;20201;-72
2022/03/06 10:49:16;;;;;;;37.43;20.93;;;;;;;2.14;nan;-23875.59;4993133;28;20194;-69
2022/03/06 10:51:44;;;;;;;36.83;20.13;;;;;;;2.20;nan;-23877.31;4993004;28;20169;-71
2022/03/06 10:54:13;;;;;;;33.97;20.07;;;;;;;1.97;nan;-23870.88;4993009;28;20212;-72
2022/03/06 10:56:39;;;;;;;39.50;21.20;;;;;;;1.87;nan;-23867.88;4993116;28;20175;-72
2022/03/06 10:59:06;;;;;;;36.53;20.17;;;;;;;2.25;nan;-23878.75;4992972;28;20268;-70
2022/03/06 11:01:33;;;;;;;40.73;21.87;;;;;;;2.16;nan;-23876.31;4993042;28;20649;-72
2022/03/06 11:04:01;;;;;;;38.93;21.13;;;;;;;2.16;nan;-23876.16;4992945;28;20256;-71
2022/03/06 11:06:29;;;;;;;37.73;20.37;;;;;;;2.23;nan;-23878.16;4991359;28;20174;-71
2022/03/06 11:08:55;;;;;;;37.47;20.07;;;;;;;1.95;nan;-23870.16;4991619;28;20193;-72
2022/03/06 11:11:21;;;;;;;37.73;20.27;;;;;;;2.14;nan;-23875.59;4991519;28;20676;-70
2022/03/06 11:13:48;;;;;;;42.50;22.03;;;;;;;2.20;nan;-23877.31;4991999;28;20174;-73
2022/03/06 11:16:15;;;;;;;43.10;22.97;;;;;;;2.26;nan;-23878.88;4993182;28;20252;-72
2022/03/06 11:18:40;;;;;;;40.87;22.30;;;;;;;2.23;nan;-23878.16;4991776;28;20187;-71
2022/03/06 11:21:07;;;;;;;42.50;21.13;;;;;;;1.98;nan;-23871.03;4991844;28;20341;-73
2022/03/06 11:23:52;;;;;;;37.50;20.77;;;;;;;2.33;nan;-23880.88;4991864;28;20210;-73
2022/03/06 11:26:18;;;;;;;42.53;22.23;;;;;;;1.04;nan;-23844.44;4991498;28;20651;-71
2022/03/06 11:28:49;;;;;;;35.60;20.20;;;;;;;2.53;nan;-23886.59;4991625;28;20215;-72
2022/03/06 11:31:16;;;;;;;36.47;20.13;;;;;;;1.73;nan;-23864.16;4991723;28;20174;-72